createdAt,value
2019-06-08T00:01:37.375Z,99585.36
2019-06-08T00:04:40.292Z,99592.27
2019-06-08T00:07:43.231Z,99598.61
2019-06-08T00:10:46.130Z,99604.70
2019-06-08T00:13:49.411Z,99608.25
2019-06-08T00:16:52.331Z,99610.38
2019-06-08T00:19:55.730Z,99619.19
2019-06-08T00:22:59.773Z,99615.28
2019-06-08T00:26:02.689Z,99610.98
2019-06-08T00:29:07.476Z,99622.73
2019-06-08T00:32:10.797Z,99613.24
2019-06-08T00:35:14.515Z,99628.63
2019-06-08T00:38:18.815Z,99626.48
2019-06-08T00:41:23.582Z,99624.40
2019-06-08T00:44:26.765Z,99629.50
2019-06-08T00:47:46.677Z,99634.55
2019-06-08T00:50:35.900Z,99632.14
2019-06-08T00:53:38.811Z,99637.84
2019-06-08T00:56:42.095Z,99636.81
2019-06-08T00:59:45.463Z,99623.98
2019-06-08T01:02:49.539Z,99638.16
2019-06-08T01:05:52.800Z,99638.40
2019-06-08T01:08:55.736Z,99644.97
2019-06-08T01:11:58.659Z,99644.77
2019-06-08T01:15:02.004Z,99639.09
2019-06-08T01:18:05.228Z,99638.77
2019-06-08T01:21:08.138Z,99651.02
2019-06-08T01:24:11.548Z,99644.06
2019-06-08T01:27:14.793Z,99647.91
2019-06-08T01:30:18.429Z,99646.41
2019-06-08T01:33:22.515Z,99652.33
2019-06-08T01:36:27.386Z,99656.96
2019-06-08T01:39:32.435Z,99654.89
2019-06-08T01:42:35.905Z,99653.17
2019-06-08T01:45:39.936Z,99658.20
2019-06-08T01:48:42.841Z,99654.06
2019-06-08T01:51:46.103Z,99657.55
2019-06-08T01:54:49.331Z,99638.20
2019-06-08T01:57:53.454Z,99649.17
2019-06-08T02:00:56.687Z,99657.13
2019-06-08T02:03:59.967Z,99655.38
2019-06-08T02:07:02.877Z,99659.13
2019-06-08T02:10:06.510Z,99660.67
2019-06-08T02:13:09.437Z,99661.74
2019-06-08T02:16:12.381Z,99657.66
2019-06-08T02:19:15.323Z,99666.09
2019-06-08T02:22:18.694Z,99672.02
2019-06-08T02:25:27.343Z,99659.54
2019-06-08T02:28:31.794Z,99666.81
2019-06-08T02:31:35.507Z,99669.75
2019-06-08T02:34:40.648Z,99654.80
2019-06-08T02:37:44.339Z,99682.20
2019-06-08T02:40:47.241Z,99669.56
2019-06-08T02:43:50.463Z,99680.55
2019-06-08T02:46:53.385Z,99671.89
2019-06-08T02:49:56.309Z,99671.89
2019-06-08T02:52:59.235Z,99687.35
2019-06-08T02:56:03.190Z,99697.64
2019-06-08T02:59:06.218Z,99703.06
2019-06-08T03:02:12.090Z,99696.07
2019-06-08T03:05:16.293Z,99700.03
2019-06-08T03:08:20.591Z,99695.35
2019-06-08T03:11:25.157Z,99696.14
2019-06-08T03:14:28.976Z,99705.94
2019-06-08T03:17:33.348Z,99724.39
2019-06-08T03:20:37.864Z,99715.28
2019-06-08T03:23:41.605Z,99713.20
2019-06-08T03:26:45.935Z,99716.98
2019-06-08T03:29:49.213Z,99722.33
2019-06-08T03:32:56.413Z,99720.13
2019-06-08T03:35:58.794Z,99729.70
2019-06-08T03:39:01.831Z,99728.76
2019-06-08T03:42:06.139Z,99741.61
2019-06-08T03:45:09.687Z,99734.14
2019-06-08T03:48:12.935Z,99755.59
2019-06-08T03:51:15.845Z,99739.41
2019-06-08T03:54:19.135Z,99749.14
2019-06-08T03:57:22.751Z,99752.94
2019-06-08T04:00:26.153Z,99756.83
2019-06-08T04:03:29.382Z,99759.77
2019-06-08T04:06:32.673Z,99757.88
2019-06-08T04:09:37.771Z,99775.23
2019-06-08T04:12:41.970Z,99770.42
2019-06-08T04:15:46.965Z,99770.83
2019-06-08T04:18:50.385Z,99766.59
2019-06-08T04:21:54.091Z,99777.43
2019-06-08T04:24:57.354Z,99785.52
2019-06-08T04:28:00.253Z,99786.32
2019-06-08T04:31:03.202Z,99790.47
2019-06-08T04:34:06.374Z,99807.23
2019-06-08T04:37:09.689Z,99791.48
2019-06-08T04:40:14.610Z,99806.22
2019-06-08T04:43:17.834Z,99788.33
2019-06-08T04:46:21.168Z,99798.91
2019-06-08T04:49:24.104Z,99795.33
2019-06-08T04:52:27.471Z,99795.87
2019-06-08T04:55:31.394Z,99819.09
2019-06-08T04:58:34.647Z,99811.53
2019-06-08T05:01:38.902Z,99825.62
2019-06-08T05:04:43.247Z,99836.47
2019-06-08T05:07:48.512Z,99828.09
2019-06-08T05:10:52.310Z,99844.66
2019-06-08T05:13:55.279Z,99837.70
2019-06-08T05:16:58.532Z,99849.70
2019-06-08T05:20:01.483Z,99848.80
2019-06-08T05:23:04.605Z,99860.62
2019-06-08T05:26:07.545Z,99860.79
2019-06-08T05:29:10.816Z,99859.99
2019-06-08T05:32:13.823Z,99860.62
2019-06-08T05:35:18.000Z,99868.53
2019-06-08T05:38:20.984Z,99865.92
2019-06-08T05:41:24.418Z,99861.92
2019-06-08T05:44:27.449Z,99871.78
2019-06-08T05:47:30.694Z,99878.02
2019-06-08T05:50:33.981Z,99870.70
2019-06-08T05:53:36.956Z,99865.83
2019-06-08T05:56:39.933Z,99880.62
2019-06-08T05:59:43.974Z,99889.39
2019-06-08T06:02:47.198Z,99908.06
2019-06-08T06:05:50.800Z,99901.38
2019-06-08T06:08:53.936Z,99905.28
2019-06-08T06:11:56.891Z,99904.13
2019-06-08T06:15:00.129Z,99913.20
2019-06-08T06:18:03.373Z,99911.95
2019-06-08T06:21:10.968Z,99906.15
2019-06-08T06:24:11.474Z,99924.27
2019-06-08T06:27:15.084Z,99925.55
2019-06-08T06:30:18.204Z,99928.80
2019-06-08T06:33:21.944Z,99936.65
2019-06-08T06:36:25.167Z,99935.12
2019-06-08T06:39:29.183Z,99953.14
2019-06-08T06:42:33.136Z,99945.02
2019-06-08T06:45:36.062Z,99941.22
2019-06-08T06:48:39.319Z,99963.51
2019-06-08T06:51:42.657Z,99968.77
2019-06-08T06:54:46.548Z,99965.53
2019-06-08T06:57:51.554Z,99991.42
2019-06-08T07:00:54.858Z,99989.09
2019-06-08T07:03:59.186Z,99998.46
2019-06-08T07:07:02.223Z,99997.26
2019-06-08T07:10:05.753Z,100011.51
2019-06-08T07:13:08.724Z,100011.88
2019-06-08T07:16:18.495Z,100025.59
2019-06-08T07:19:16.504Z,100030.91
2019-06-08T07:22:19.442Z,100054.42
2019-06-08T07:25:22.916Z,100031.70
2019-06-08T07:28:26.269Z,100032.55
2019-06-08T07:31:29.192Z,100046.75
2019-06-08T07:34:32.127Z,100026.50
2019-06-08T07:37:35.684Z,100058.55
2019-06-08T07:40:39.013Z,100056.28
2019-06-08T07:43:42.214Z,100051.72
2019-06-08T07:46:45.127Z,100051.69
2019-06-08T07:49:49.312Z,100044.45
2019-06-08T07:52:52.852Z,100056.92
2019-06-08T07:55:56.293Z,100043.55
2019-06-08T07:58:59.863Z,100038.44
2019-06-08T08:02:03.495Z,100046.22
2019-06-08T08:05:06.758Z,100061.02
2019-06-08T08:08:09.709Z,100069.67
2019-06-08T08:11:12.887Z,100062.02
2019-06-08T08:14:15.842Z,100074.39
2019-06-08T08:17:18.768Z,100082.87
2019-06-08T08:20:21.961Z,100071.25
2019-06-08T08:23:27.316Z,100083.92
2019-06-08T08:26:34.465Z,100096.94
2019-06-08T08:29:38.260Z,100101.50
2019-06-08T08:32:42.349Z,100099.27
2019-06-08T08:35:45.287Z,100116.39
2019-06-08T08:38:50.186Z,100094.22
2019-06-08T08:41:56.854Z,100101.60
2019-06-08T08:45:02.662Z,100095.04
2019-06-08T08:48:20.405Z,100111.37
2019-06-08T08:51:08.564Z,100097.90
2019-06-08T08:54:11.634Z,100119.47
2019-06-08T08:57:14.668Z,100093.18
2019-06-08T09:00:20.020Z,100127.23
2019-06-08T09:03:29.340Z,100134.03
2019-06-08T09:06:28.372Z,100135.13
2019-06-08T09:09:32.027Z,100139.31
2019-06-08T09:12:37.524Z,100137.98
2019-06-08T09:15:40.182Z,100131.13
2019-06-08T09:18:43.433Z,100142.81
2019-06-08T09:21:48.182Z,100152.18
2019-06-08T09:24:52.593Z,100148.97
2019-06-08T09:27:57.177Z,100160.84
2019-06-08T09:31:03.665Z,100165.53
2019-06-08T09:34:12.145Z,100169.82
2019-06-08T09:37:11.244Z,100186.11
2019-06-08T09:40:14.482Z,100174.47
2019-06-08T09:43:18.979Z,100192.33
2019-06-08T09:46:22.165Z,100195.20
2019-06-08T09:49:25.088Z,100177.30
2019-06-08T09:52:28.272Z,100177.53
2019-06-08T09:55:31.640Z,100197.45
2019-06-08T09:58:34.555Z,100212.81
2019-06-08T10:01:38.422Z,100189.25
2019-06-08T10:04:42.246Z,100192.04
2019-06-08T10:07:45.194Z,100214.78
2019-06-08T10:10:48.597Z,100221.96
2019-06-08T10:13:51.841Z,100226.97
2019-06-08T10:16:56.283Z,100233.66
2019-06-08T10:20:02.700Z,100242.92
2019-06-08T10:23:24.175Z,100245.03
2019-06-08T10:26:12.291Z,100250.73
2019-06-08T10:29:15.208Z,100249.82
2019-06-08T10:32:20.094Z,100243.31
2019-06-08T10:35:23.098Z,100244.79
2019-06-08T10:38:28.792Z,100235.16
2019-06-08T10:41:31.225Z,100243.06
2019-06-08T10:44:34.176Z,100243.53
2019-06-08T10:47:37.929Z,100246.03
2019-06-08T10:50:40.971Z,100250.16
2019-06-08T10:53:49.101Z,100254.98
2019-06-08T10:56:48.963Z,100254.65
2019-06-08T10:59:52.247Z,100275.21
2019-06-08T11:02:55.194Z,100264.04
2019-06-08T11:06:00.450Z,100260.36
2019-06-08T11:09:10.208Z,100259.89
2019-06-08T11:12:14.719Z,100262.63
2019-06-08T11:15:16.506Z,100255.64
2019-06-08T11:18:19.791Z,100258.69
2019-06-08T11:21:23.037Z,100258.63
2019-06-08T11:24:28.801Z,100255.34
2019-06-08T11:27:30.884Z,100285.73
2019-06-08T11:30:34.185Z,100275.61
2019-06-08T11:33:39.048Z,100281.28
2019-06-08T11:36:43.038Z,100285.98
2019-06-08T11:39:45.969Z,100286.20
2019-06-08T11:42:49.213Z,100293.88
2019-06-08T11:45:52.122Z,100279.37
2019-06-08T11:48:57.661Z,100276.36
2019-06-08T11:52:00.473Z,100291.14
2019-06-08T11:55:05.390Z,100300.33
2019-06-08T11:58:10.454Z,100298.73
2019-06-08T12:01:18.229Z,100308.37
2019-06-08T12:04:20.439Z,100305.44
2019-06-08T12:07:23.363Z,100313.08
2019-06-08T12:10:28.548Z,100313.44
2019-06-08T12:13:31.695Z,100317.26
2019-06-08T12:16:34.962Z,100318.36
2019-06-08T12:19:38.086Z,100312.77
2019-06-08T12:22:41.035Z,100323.72
2019-06-08T12:25:44.953Z,100313.88
2019-06-08T12:28:48.631Z,100331.13
2019-06-08T12:31:52.080Z,100320.98
2019-06-08T12:34:59.776Z,100336.62
2019-06-08T12:38:00.844Z,100340.03
2019-06-08T12:41:04.157Z,100338.45
2019-06-08T12:44:09.773Z,100330.94
2019-06-08T12:47:15.929Z,100331.48
2019-06-08T12:50:17.877Z,100350.19
2019-06-08T12:53:22.889Z,100356.98
2019-06-08T12:56:25.646Z,100323.85
2019-06-08T12:59:28.585Z,100338.69
2019-06-08T13:02:31.527Z,100355.08
2019-06-08T13:05:34.479Z,100353.52
2019-06-08T13:08:37.722Z,100348.41
2019-06-08T13:11:41.025Z,100363.95
2019-06-08T13:14:44.278Z,100357.38
2019-06-08T13:17:47.781Z,100349.52
2019-06-08T13:20:52.043Z,100361.88
2019-06-08T13:23:55.364Z,100358.39
2019-06-08T13:26:58.641Z,100375.17
2019-06-08T13:30:03.397Z,100372.89
2019-06-08T13:33:08.159Z,100379.91
2019-06-08T13:36:12.310Z,100384.00
2019-06-08T13:39:18.216Z,100364.89
2019-06-08T13:42:21.931Z,100375.23
2019-06-08T13:45:27.714Z,100357.74
2019-06-08T13:48:30.353Z,100374.36
2019-06-08T13:51:33.725Z,100371.20
2019-06-08T13:54:38.217Z,100381.45
2019-06-08T13:57:41.584Z,100390.44
2019-06-08T14:00:44.496Z,100388.49
2019-06-08T14:03:50.027Z,100373.86
2019-06-08T14:06:54.139Z,100363.25
2019-06-08T14:10:00.562Z,100373.12
2019-06-08T14:13:05.466Z,100361.95
2019-06-08T14:16:11.432Z,100378.39
2019-06-08T14:19:13.538Z,100388.25
2019-06-08T14:22:20.276Z,100377.11
2019-06-08T14:25:23.390Z,100389.37
2019-06-08T14:28:29.013Z,100378.98
2019-06-08T14:31:33.426Z,100374.36
2019-06-08T14:34:38.720Z,100369.31
2019-06-08T14:37:41.189Z,100368.25
2019-06-08T14:40:44.488Z,100390.63
2019-06-08T14:43:48.289Z,100383.31
2019-06-08T14:46:52.607Z,100389.40
2019-06-08T14:49:55.555Z,100393.61
2019-06-08T14:52:59.239Z,100404.50
2019-06-08T14:56:08.248Z,100401.10
2019-06-08T14:59:09.862Z,100414.48
2019-06-08T15:02:12.875Z,100414.47
2019-06-08T15:05:18.143Z,100409.36
2019-06-08T15:08:21.616Z,100411.99
2019-06-08T15:11:27.778Z,100410.26
2019-06-08T15:14:34.845Z,100407.36
2019-06-08T15:17:37.957Z,100405.05
2019-06-08T15:20:43.234Z,100409.81
2019-06-08T15:23:47.635Z,100416.31
2019-06-08T15:26:50.838Z,100407.72
2019-06-08T15:29:54.123Z,100415.42
2019-06-08T15:32:58.723Z,100428.87
2019-06-08T15:36:02.426Z,100419.16
2019-06-08T15:39:07.825Z,100456.16
2019-06-08T15:42:11.242Z,100466.16
2019-06-08T15:45:14.188Z,100477.37
2019-06-08T15:48:20.178Z,100460.34
2019-06-08T15:51:22.183Z,100453.28
2019-06-08T15:54:29.015Z,100456.00
2019-06-08T15:57:34.296Z,100460.34
2019-06-08T16:00:35.880Z,100466.79
2019-06-08T16:03:38.926Z,100463.36
2019-06-08T16:06:42.204Z,100453.40
2019-06-08T16:09:45.819Z,100470.67
2019-06-08T16:12:48.788Z,100459.25
2019-06-08T16:15:52.178Z,100467.36
2019-06-08T16:18:55.526Z,100474.10
2019-06-08T16:21:58.972Z,100477.13
2019-06-08T16:25:02.121Z,100486.27
2019-06-08T16:28:06.087Z,100489.02
2019-06-08T16:31:09.032Z,100503.66
2019-06-08T16:34:12.279Z,100500.16
2019-06-08T16:37:16.203Z,100507.84
2019-06-08T16:40:19.776Z,100498.77
2019-06-08T16:43:22.733Z,100517.36
2019-06-08T16:46:25.944Z,100503.62
2019-06-08T16:49:29.254Z,100506.25
2019-06-08T16:52:33.044Z,100504.38
2019-06-08T16:55:36.207Z,100506.20
2019-06-08T16:58:39.307Z,100533.44
2019-06-08T17:01:44.111Z,100542.34
2019-06-08T17:04:47.084Z,100553.34
2019-06-08T17:07:50.207Z,100550.80
2019-06-08T17:10:53.289Z,100556.18
2019-06-08T17:13:56.277Z,100560.38
2019-06-08T17:16:59.206Z,100555.37
2019-06-08T17:20:05.066Z,100563.33
2019-06-08T17:23:08.853Z,100542.52
2019-06-08T17:26:12.035Z,100547.74
2019-06-08T17:29:15.249Z,100558.91
2019-06-08T17:32:18.383Z,100557.05
2019-06-08T17:35:21.576Z,100566.63
2019-06-08T17:38:24.710Z,100576.87
2019-06-08T17:41:27.793Z,100579.80
2019-06-08T17:44:32.028Z,100576.84
2019-06-08T17:47:36.379Z,100580.73
2019-06-08T17:50:40.763Z,100578.38
2019-06-08T17:53:44.183Z,100582.06
2019-06-08T17:56:47.487Z,100581.00
2019-06-08T17:59:51.027Z,100587.57
2019-06-08T18:02:54.190Z,100590.30
2019-06-08T18:05:58.103Z,100586.55
2019-06-08T18:09:01.124Z,100586.84
2019-06-08T18:12:07.516Z,100591.09
2019-06-08T18:15:11.684Z,100598.87
2019-06-08T18:18:17.501Z,100585.48
2019-06-08T18:21:20.418Z,100587.02
2019-06-08T18:24:23.735Z,100597.01
2019-06-08T18:27:27.847Z,100586.17
2019-06-08T18:30:31.974Z,100587.42
2019-06-08T18:33:39.301Z,100586.36
2019-06-08T18:36:42.494Z,100588.24
2019-06-08T18:39:49.346Z,100580.41
2019-06-08T18:42:53.832Z,100582.16
2019-06-08T18:45:57.666Z,100579.07
2019-06-08T18:49:00.857Z,100582.89
2019-06-08T18:52:07.992Z,100579.55
2019-06-08T18:55:11.510Z,100578.52
2019-06-08T18:58:22.113Z,100589.64
2019-06-08T19:01:22.845Z,100589.59
2019-06-08T19:04:27.621Z,100592.91
2019-06-08T19:07:31.345Z,100586.09
2019-06-08T19:10:37.823Z,100599.07
2019-06-08T19:13:41.389Z,100593.94
2019-06-08T19:16:47.102Z,100593.73
2019-06-08T19:19:52.360Z,100587.51
2019-06-08T19:22:54.533Z,100597.73
2019-06-08T19:26:00.401Z,100599.30
2019-06-08T19:29:03.292Z,100609.27
2019-06-08T19:32:07.412Z,100608.30
2019-06-08T19:35:10.592Z,100612.35
2019-06-08T19:38:13.835Z,100627.15
2019-06-08T19:41:38.083Z,100626.35
2019-06-08T19:44:48.444Z,100626.58
2019-06-08T19:47:46.690Z,100633.48
2019-06-08T19:50:53.960Z,100651.36
2019-06-08T19:53:58.054Z,100644.13
2019-06-08T19:57:01.055Z,100647.77
2019-06-08T20:00:07.290Z,100649.17
2019-06-08T20:03:10.486Z,100657.55
2019-06-08T20:06:14.379Z,100663.95
2019-06-08T20:09:18.192Z,100674.09
2019-06-08T20:12:21.945Z,100671.29
2019-06-08T20:15:25.136Z,100689.83
2019-06-08T20:18:28.434Z,100692.78
2019-06-08T20:21:31.363Z,100697.34
2019-06-08T20:24:34.335Z,100694.27
2019-06-08T20:27:38.197Z,100690.80
2019-06-08T20:30:42.275Z,100684.87
2019-06-08T20:33:45.910Z,100691.53
2019-06-08T20:36:48.861Z,100688.80
2019-06-08T20:40:05.816Z,100696.33
2019-06-08T20:42:59.064Z,100695.77
2019-06-08T20:46:02.605Z,100695.35
2019-06-08T20:49:08.307Z,100697.25
2019-06-08T20:52:11.128Z,100699.83
2019-06-08T20:55:17.345Z,100704.20
2019-06-08T20:58:19.680Z,100707.34
2019-06-08T21:01:22.901Z,100707.75
2019-06-08T21:04:27.687Z,100701.98
2019-06-08T21:07:31.008Z,100706.80
2019-06-08T21:10:33.954Z,100709.88
2019-06-08T21:13:37.462Z,100713.55
2019-06-08T21:16:40.801Z,100714.11
2019-06-08T21:19:44.739Z,100717.93
2019-06-08T21:22:50.942Z,100715.63
2019-06-08T21:25:55.512Z,100717.55
2019-06-08T21:29:00.477Z,100715.43
2019-06-08T21:32:03.975Z,100717.70
2019-06-08T21:35:07.625Z,100712.30
2019-06-08T21:38:22.713Z,100713.82
2019-06-08T21:41:17.224Z,100721.63
2019-06-08T21:44:20.281Z,100723.25
2019-06-08T21:47:23.219Z,100719.58
2019-06-08T21:50:27.579Z,100719.58
2019-06-08T21:53:30.981Z,100728.40
2019-06-08T21:56:34.055Z,100728.73
2019-06-08T21:59:38.386Z,100728.40
2019-06-08T22:02:41.349Z,100729.98
2019-06-08T22:05:44.413Z,100731.56
2019-06-08T22:08:48.116Z,100739.31
2019-06-08T22:11:52.514Z,100743.22
2019-06-08T22:14:57.300Z,100750.49
2019-06-08T22:18:01.491Z,100738.87
2019-06-08T22:21:04.445Z,100746.02
2019-06-08T22:24:07.936Z,100740.34
2019-06-08T22:27:11.313Z,100746.81
2019-06-08T22:30:34.353Z,100741.73
2019-06-08T22:33:20.616Z,100736.92
2019-06-08T22:36:24.230Z,100739.96
2019-06-08T22:39:28.178Z,100752.34
2019-06-08T22:42:31.580Z,100747.07
2019-06-08T22:45:34.561Z,100746.23
2019-06-08T22:48:38.397Z,100750.02
2019-06-08T22:51:41.502Z,100753.36
2019-06-08T22:54:44.413Z,100748.03
2019-06-08T22:57:48.048Z,100743.16
2019-06-08T23:00:53.043Z,100748.23
2019-06-08T23:04:00.226Z,100754.30
2019-06-08T23:07:04.341Z,100753.31
2019-06-08T23:10:09.014Z,100759.28
2019-06-08T23:13:12.164Z,100757.73
2019-06-08T23:16:18.024Z,100758.24
2019-06-08T23:19:20.705Z,100751.38
2019-06-08T23:22:23.621Z,100756.98
2019-06-08T23:25:27.954Z,100755.52
2019-06-08T23:28:31.379Z,100754.17
2019-06-08T23:31:34.674Z,100750.47
2019-06-08T23:34:38.451Z,100751.45
2019-06-08T23:37:41.997Z,100755.98
2019-06-08T23:40:47.236Z,100762.20
2019-06-08T23:43:50.156Z,100760.19
2019-06-08T23:46:53.420Z,100759.32
2019-06-08T23:49:59.220Z,100755.68
2019-06-08T23:53:02.348Z,100758.43
2019-06-08T23:56:08.437Z,100762.25
2019-06-08T23:59:10.633Z,100755.68
